Terminal Aerodrome Forecast
Issued by NWS Sioux Falls, SD

Home | Current Version | Previous Version | Graphics & Text | Print | Product List | Glossary On
Versions: 1 2 3 4 5 6 7 8 9 10 11 12 13 14 15
000
FTUS43 KFSD 222014 AAB
TAFFSD
TAF AMD
KFSD 222014Z 2220/2318 31009KT 5SM BR OVC007
     FM230200 31006KT 4SM BR OVC005
     FM231100 VRB03KT 2SM BR OVC003
     FM231500 22004KT 3SM BR OVC006
     FM231600 20004KT 4SM BR OVC008=

USA.gov is the U.S. government's official web portal to all federal, state and local government web resources and services.